Time;durP1;ratioP1;P1;durP2;ratioP2;P2;SDS_P1;SDS_P2;PMS_P1;PMS_P2;Temp;Humidity;BMP_temperature;BMP_pressure;BME280_temperature;BME280_humidity;BME280_pressure;Samples;Min_cycle;Max_cycle;Signal;HPM_P1;HPM_P2
2022/02/24 12:34:29;;;;;;;13.68;9.40;;;;;;;;;;6179307;23;20031;-96
2022/02/24 12:37:09;;;;;;;15.45;10.85;;;;;;;;;;6196520;23;20009;-96
2022/02/24 12:39:37;;;;;;;15.38;10.20;;;;;;;;;;6172134;23;19992;-95
2022/02/24 12:42:06;;;;;;;14.43;9.57;;;;;;;;;;6162596;23;20020;-96
2022/02/24 12:44:32;;;;;;;13.50;9.40;;;;;;;;;;6147787;23;20092;-93
2022/02/24 12:47:05;;;;;;;13.50;9.23;;;;;;;;;;6169230;23;20008;-96
2022/02/24 12:49:59;;;;;;;14.88;10.20;;;;;;;;;;6175099;23;20032;-95
2022/02/24 12:52:35;;;;;;;17.40;10.27;;;;;;;;;;6171633;23;20344;-96
2022/02/24 12:55:07;;;;;;;15.57;9.95;;;;;;;;;;6172767;23;20013;-96
2022/02/24 12:57:36;;;;;;;15.98;10.32;;;;;;;;;;6172876;23;20009;-96
2022/02/24 13:00:03;;;;;;;16.17;10.93;;;;;;;;;;6170659;23;20001;-93
2022/02/24 13:02:28;;;;;;;17.02;11.15;;;;;;;;;;6165814;23;20029;-94
2022/02/24 13:36:09;;;;;;;23.60;13.27;;;;;;;;;;6146534;23;20032;-92
2022/02/24 14:37:59;;;;;;;29.58;16.73;;;;;;;;;;6169432;23;20036;-93
2022/02/24 15:06:37;;;;;;;33.95;19.08;;;;;;;;;;6166637;23;20028;-92
2022/02/24 15:09:03;;;;;;;30.27;17.85;;;;;;;;;;6164720;23;20021;-91
2022/02/24 15:11:29;;;;;;;29.30;17.38;;;;;;;;;;6148200;23;19994;-91
2022/02/24 15:14:10;;;;;;;28.15;16.95;;;;;;;;;;6138321;23;20006;-91
2022/02/24 15:21:52;;;;;;;30.70;17.33;;;;;;;;;;6190152;23;20025;-92
2022/02/24 15:24:47;;;;;;;32.10;17.45;;;;;;;;;;6183863;23;20044;-93
2022/02/24 15:50:46;;;;;;;28.70;17.05;;;;;;;;;;6163446;23;20036;-92
2022/02/24 15:53:13;;;;;;;33.05;19.20;;;;;;;;;;6189840;23;20503;-93
2022/02/24 16:06:01;;;;;;;43.13;27.10;;;;;;;;;;6173118;23;19916;-91
2022/02/24 16:24:15;;;;;;;29.00;16.85;;;;;;;;;;6197259;23;20039;-93
2022/02/24 16:26:42;;;;;;;32.13;17.45;;;;;;;;;;6174288;23;20024;-93
2022/02/24 16:50:14;;;;;;;29.75;17.20;;;;;;;;;;6139480;23;19934;-92
2022/02/24 17:21:27;;;;;;;32.53;16.23;;;;;;;;;;6179715;23;20029;-94
2022/02/24 17:31:45;;;;;;;29.63;17.42;;;;;;;;;;6168300;23;20024;-96
2022/02/24 17:34:11;;;;;;;29.08;17.25;;;;;;;;;;6132719;23;20021;-92
2022/02/24 17:36:41;;;;;;;27.35;16.67;;;;;;;;;;6132052;23;20136;-96
2022/02/24 17:39:08;;;;;;;30.60;16.63;;;;;;;;;;6156998;23;20028;-95
2022/02/24 17:41:35;;;;;;;26.73;16.20;;;;;;;;;;6159713;23;20068;-96
2022/02/24 17:44:00;;;;;;;26.58;16.35;;;;;;;;;;6134076;23;20060;-96
2022/02/24 17:46:26;;;;;;;31.00;17.17;;;;;;;;;;6132668;23;20017;-91
2022/02/24 17:48:52;;;;;;;29.73;16.80;;;;;;;;;;6160422;23;20008;-95
2022/02/24 17:51:22;;;;;;;28.02;15.93;;;;;;;;;;6137752;23;20009;-90
2022/02/24 17:53:48;;;;;;;27.13;16.52;;;;;;;;;;6143750;23;20013;-95
2022/02/24 17:56:14;;;;;;;34.00;17.13;;;;;;;;;;6140530;23;20013;-95
2022/02/24 17:58:39;;;;;;;30.20;15.85;;;;;;;;;;6135354;23;20010;-96
2022/02/24 18:01:05;;;;;;;30.17;15.00;;;;;;;;;;6133378;23;20012;-96
2022/02/24 18:03:31;;;;;;;27.27;16.05;;;;;;;;;;6133309;23;20040;-89
2022/02/24 18:05:56;;;;;;;28.33;16.63;;;;;;;;;;6133559;23;20032;-96
2022/02/24 18:08:22;;;;;;;27.58;16.13;;;;;;;;;;6132501;23;20001;-90
2022/02/24 18:10:49;;;;;;;31.95;18.10;;;;;;;;;;6159715;23;20005;-92
2022/02/24 18:13:17;;;;;;;30.98;17.33;;;;;;;;;;6133895;23;20009;-90
2022/02/24 18:15:44;;;;;;;28.13;16.55;;;;;;;;;;6133317;23;20016;-90
2022/02/24 18:18:11;;;;;;;32.17;16.38;;;;;;;;;;6137437;23;20013;-93
2022/02/24 18:20:36;;;;;;;28.65;16.08;;;;;;;;;;6138872;23;20006;-96
2022/02/24 18:23:05;;;;;;;28.67;16.10;;;;;;;;;;6136494;23;20132;-96
2022/02/24 18:25:31;;;;;;;29.15;16.63;;;;;;;;;;6137501;23;20005;-91
2022/02/24 18:27:57;;;;;;;31.70;16.45;;;;;;;;;;6144630;23;20014;-96
2022/02/24 18:30:44;;;;;;;29.38;17.38;;;;;;;;;;6156631;23;19989;-95
2022/02/24 18:53:58;;;;;;;29.23;17.55;;;;;;;;;;6160397;23;20396;-95
2022/02/24 18:56:24;;;;;;;27.45;16.17;;;;;;;;;;6136617;23;20052;-91
2022/02/24 18:58:51;;;;;;;26.20;15.40;;;;;;;;;;6138103;23;20002;-96
2022/02/24 19:01:47;;;;;;;26.92;15.95;;;;;;;;;;6141454;23;20014;-95
2022/02/24 19:04:52;;;;;;;28.55;16.27;;;;;;;;;;6104673;23;20001;-96
2022/02/24 19:10:28;;;;;;;27.92;15.30;;;;;;;;;;6151486;23;20092;-95
2022/02/24 19:13:16;;;;;;;28.17;15.45;;;;;;;;;;6175185;23;20008;-96
2022/02/24 19:15:41;;;;;;;30.25;17.30;;;;;;;;;;6158872;23;20014;-94
2022/02/24 19:26:00;;;;;;;53.63;29.08;;;;;;;;;;6139498;23;20217;-94
2022/02/24 19:34:36;;;;;;;30.30;17.35;;;;;;;;;;6132059;23;20842;31
2022/02/24 21:05:59;;;;;;;34.30;19.92;;;;;;;;;;6143264;23;20026;-92
2022/02/24 21:14:17;;;;;;;32.00;18.40;;;;;;;;;;6168617;23;20026;-91
2022/02/24 21:17:13;;;;;;;32.40;17.45;;;;;;;;;;6173835;23;20097;-91
2022/02/24 21:20:33;;;;;;;30.35;18.48;;;;;;;;;;6160731;23;20112;-93
2022/02/24 21:23:00;;;;;;;30.05;17.17;;;;;;;;;;6140436;23;20028;-93
2022/02/24 21:25:32;;;;;;;33.17;18.63;;;;;;;;;;6148420;23;20001;-91
2022/02/24 21:27:57;;;;;;;36.45;20.67;;;;;;;;;;6151355;23;20014;-93
2022/02/24 21:31:04;;;;;;;34.13;19.60;;;;;;;;;;6152700;23;20025;-93
2022/02/24 21:33:30;;;;;;;34.95;18.58;;;;;;;;;;6159560;23;20022;-94
2022/02/24 21:36:17;;;;;;;35.15;19.92;;;;;;;;;;6169255;23;20002;-93
2022/02/24 21:39:26;;;;;;;34.45;19.13;;;;;;;;;;6194173;23;20052;-93
2022/02/24 21:41:53;;;;;;;33.73;19.60;;;;;;;;;;6202204;23;20032;-92
2022/02/24 21:44:40;;;;;;;32.75;19.10;;;;;;;;;;6179376;23;20058;-92
2022/02/24 21:47:13;;;;;;;36.83;20.13;;;;;;;;;;6179510;23;20028;-92
2022/02/24 21:52:49;;;;;;;34.05;18.38;;;;;;;;;;6197500;23;20017;-93
2022/02/24 21:55:21;;;;;;;33.47;17.85;;;;;;;;;;6176725;23;20016;-92
2022/02/24 21:57:53;;;;;;;35.50;19.00;;;;;;;;;;6173010;23;20005;-91
2022/02/24 22:35:05;;;;;;;29.50;15.82;;;;;;;;;;6147472;23;20029;-91
2022/02/24 22:50:44;;;;;;;24.70;13.95;;;;;;;;;;6162384;23;20056;-91
2022/02/24 22:53:29;;;;;;;26.83;13.57;;;;;;;;;;6170319;23;20009;-92
2022/02/24 23:21:56;;;;;;;30.25;14.60;;;;;;;;;;6198048;23;20009;-91
